createdAt,value
2022-09-07T00:01:08.612Z,15.43
2022-09-07T00:03:36.671Z,15.38
2022-09-07T00:06:12.520Z,15.40
2022-09-07T00:08:41.013Z,15.38
2022-09-07T00:11:15.839Z,15.41
2022-09-07T00:13:45.737Z,15.35
2022-09-07T00:16:19.219Z,15.29
2022-09-07T00:18:46.720Z,15.20
2022-09-07T00:21:16.363Z,15.21
2022-09-07T00:23:46.128Z,15.18
2022-09-07T00:26:16.135Z,15.13
2022-09-07T00:28:45.816Z,15.09
2022-09-07T00:31:19.656Z,15.09
2022-09-07T00:33:49.123Z,15.01
2022-09-07T00:36:17.493Z,14.97
2022-09-07T00:38:44.901Z,14.95
2022-09-07T00:41:12.099Z,14.87
2022-09-07T00:43:42.055Z,14.83
2022-09-07T00:46:38.585Z,14.91
2022-09-07T00:49:08.870Z,14.90
2022-09-07T00:51:53.121Z,14.85
2022-09-07T00:54:34.320Z,14.80
2022-09-07T00:57:01.664Z,14.77
2022-09-07T00:59:40.023Z,14.77
2022-09-07T01:02:08.395Z,14.74
2022-09-07T01:04:36.489Z,14.74
2022-09-07T01:07:06.422Z,14.80
2022-09-07T01:09:33.546Z,14.76
2022-09-07T01:12:02.195Z,14.84
2022-09-07T01:14:40.362Z,14.81
2022-09-07T01:17:13.245Z,14.79
2022-09-07T01:20:12.335Z,14.78
2022-09-07T01:22:45.581Z,14.82
2022-09-07T01:25:18.884Z,14.82
2022-09-07T01:28:22.894Z,14.78
2022-09-07T01:31:10.301Z,14.81
2022-09-07T01:33:46.599Z,14.83
2022-09-07T01:36:17.884Z,14.87
2022-09-07T01:39:08.318Z,14.86
2022-09-07T01:41:52.017Z,14.82
2022-09-07T01:44:28.654Z,14.85
2022-09-07T01:47:09.778Z,14.70
2022-09-07T01:49:42.186Z,14.68
2022-09-07T01:52:41.141Z,14.66
2022-09-07T01:55:18.838Z,14.59
2022-09-07T01:57:54.780Z,14.51
2022-09-07T02:00:23.230Z,14.53
2022-09-07T02:03:04.674Z,14.52
2022-09-07T02:05:43.141Z,14.60
2022-09-07T02:08:18.964Z,14.58
2022-09-07T02:10:52.423Z,14.55
2022-09-07T02:13:28.313Z,14.45
2022-09-07T02:16:11.184Z,14.48
2022-09-07T02:18:44.587Z,14.37
2022-09-07T02:21:15.592Z,14.35
2022-09-07T02:24:07.897Z,14.39
2022-09-07T02:26:38.812Z,14.32
2022-09-07T02:29:08.575Z,14.26
2022-09-07T02:31:35.635Z,14.29
2022-09-07T02:34:03.349Z,14.37
2022-09-07T02:36:35.528Z,14.26
2022-09-07T02:39:02.611Z,14.25
2022-09-07T02:41:31.932Z,14.21
2022-09-07T02:44:00.095Z,14.30
2022-09-07T02:47:04.669Z,14.28
2022-09-07T02:49:44.196Z,14.13
2022-09-07T02:52:46.780Z,14.22
2022-09-07T02:55:40.963Z,14.23
2022-09-07T02:58:32.707Z,14.34
2022-09-07T03:01:33.397Z,14.21
2022-09-07T03:04:20.725Z,14.20
2022-09-07T03:07:13.541Z,14.23
2022-09-07T03:09:49.619Z,14.15
2022-09-07T03:12:17.418Z,14.11
2022-09-07T03:14:45.326Z,14.10
2022-09-07T03:17:13.987Z,14.16
2022-09-07T03:19:41.323Z,14.15
2022-09-07T03:22:08.481Z,14.20
2022-09-07T03:24:36.819Z,14.16
2022-09-07T03:27:04.094Z,14.06
2022-09-07T03:29:31.162Z,13.98
2022-09-07T03:31:58.119Z,13.96
2022-09-07T03:34:25.404Z,13.96
2022-09-07T03:36:52.506Z,13.90
2022-09-07T03:39:23.943Z,13.84
2022-09-07T03:41:51.253Z,13.81
2022-09-07T03:44:18.492Z,13.84
2022-09-07T03:46:45.651Z,13.95
2022-09-07T03:49:15.330Z,13.97
2022-09-07T03:51:42.287Z,14.01
2022-09-07T03:54:09.269Z,13.92
2022-09-07T03:56:36.510Z,13.88
2022-09-07T03:59:03.700Z,13.93
2022-09-07T04:01:30.800Z,13.86
2022-09-07T04:04:02.110Z,13.81
2022-09-07T04:06:30.751Z,13.85
2022-09-07T04:09:02.019Z,13.75
2022-09-07T04:11:29.190Z,13.80
2022-09-07T04:13:56.139Z,13.79
2022-09-07T04:16:25.280Z,13.75
2022-09-07T04:18:57.991Z,13.71
2022-09-07T04:21:27.096Z,13.73
2022-09-07T04:23:54.446Z,13.79
2022-09-07T04:26:24.367Z,13.76
2022-09-07T04:28:52.175Z,13.75
2022-09-07T04:31:20.704Z,13.73
2022-09-07T04:33:49.254Z,13.78
2022-09-07T04:36:18.078Z,13.81
2022-09-07T04:38:53.383Z,13.88
2022-09-07T04:41:25.167Z,13.90
2022-09-07T04:43:55.226Z,13.97
2022-09-07T04:46:25.601Z,13.98
2022-09-07T04:48:55.224Z,13.99
2022-09-07T04:51:25.147Z,14.03
2022-09-07T04:53:55.891Z,14.16
2022-09-07T04:56:23.941Z,14.17
2022-09-07T04:58:51.676Z,14.16
2022-09-07T05:01:21.520Z,14.20
2022-09-07T05:03:49.923Z,14.25
2022-09-07T05:06:19.187Z,14.57
2022-09-07T05:08:49.736Z,14.78
2022-09-07T05:11:18.450Z,14.87
2022-09-07T05:13:45.809Z,15.26
2022-09-07T05:16:15.609Z,15.64
2022-09-07T05:18:42.942Z,15.76
2022-09-07T05:21:12.093Z,15.67
2022-09-07T05:23:39.770Z,15.72
2022-09-07T05:26:07.068Z,15.91
2022-09-07T05:28:35.294Z,16.29
2022-09-07T05:31:18.603Z,16.50
2022-09-07T05:36:44.711Z,17.66
2022-09-07T05:39:12.076Z,17.72
2022-09-07T05:41:39.175Z,17.71
2022-09-07T05:46:54.372Z,17.18
2022-09-07T05:49:21.406Z,17.15
2022-09-07T05:51:48.845Z,17.20
2022-09-07T05:54:15.990Z,17.88
2022-09-07T05:56:43.963Z,18.58
2022-09-07T05:59:13.525Z,18.55
2022-09-07T06:01:40.838Z,18.61
2022-09-07T06:04:08.842Z,18.61
2022-09-07T06:06:40.676Z,18.53
2022-09-07T06:09:11.482Z,18.56
2022-09-07T06:11:41.063Z,18.77
2022-09-07T06:14:08.304Z,18.68
2022-09-07T06:16:35.728Z,18.69
2022-09-07T06:19:08.726Z,18.78
2022-09-07T06:21:39.591Z,18.78
2022-09-07T06:24:06.959Z,19.33
2022-09-07T06:26:34.322Z,20.07
2022-09-07T06:29:02.719Z,20.55
2022-09-07T06:31:30.150Z,20.34
2022-09-07T06:33:57.546Z,20.42
2022-09-07T06:36:27.876Z,20.65
2022-09-07T06:38:59.076Z,20.56
2022-09-07T06:44:25.347Z,20.71
2022-09-07T06:47:07.747Z,21.04
2022-09-07T06:49:35.125Z,22.61
2022-09-07T06:52:03.396Z,24.93
2022-09-07T06:57:23.097Z,26.97
2022-09-07T06:59:55.441Z,27.94
2022-09-07T07:02:22.706Z,28.09
2022-09-07T07:04:50.210Z,27.71
2022-09-07T07:07:17.454Z,28.30
2022-09-07T07:09:47.062Z,28.68
2022-09-07T07:12:14.108Z,29.36
2022-09-07T07:14:44.896Z,29.80
2022-09-07T07:17:13.037Z,30.04
2022-09-07T07:19:40.151Z,30.12
2022-09-07T07:22:29.139Z,30.82
2022-09-07T07:24:56.662Z,30.21
2022-09-07T07:27:23.977Z,30.86
2022-09-07T07:29:52.524Z,31.41
2022-09-07T07:32:19.869Z,31.90
2022-09-07T07:34:46.925Z,31.22
2022-09-07T07:37:15.109Z,29.89
2022-09-07T07:42:30.507Z,28.42
2022-09-07T07:47:53.504Z,30.47
2022-09-07T07:50:35.990Z,31.09
2022-09-07T07:55:50.944Z,30.74
2022-09-07T07:58:18.565Z,29.55
2022-09-07T08:00:55.458Z,29.97
2022-09-07T08:03:24.191Z,30.49
2022-09-07T08:05:53.601Z,30.62
2022-09-07T08:08:24.166Z,31.20
2022-09-07T08:10:52.211Z,32.06
2022-09-07T08:13:19.350Z,31.95
2022-09-07T08:15:48.458Z,32.15
2022-09-07T08:18:19.106Z,32.45
2022-09-07T08:20:46.665Z,32.02
2022-09-07T08:23:14.773Z,31.98
2022-09-07T08:25:52.845Z,32.09
2022-09-07T08:28:23.825Z,32.45
2022-09-07T08:30:51.049Z,32.64
2022-09-07T08:33:18.255Z,32.78
2022-09-07T08:36:02.887Z,32.76
2022-09-07T08:38:32.098Z,32.99
2022-09-07T08:41:00.097Z,32.43
2022-09-07T08:43:49.275Z,32.29
2022-09-07T08:46:42.574Z,32.28
2022-09-07T08:49:40.609Z,31.86
2022-09-07T08:52:48.396Z,32.14
2022-09-07T08:55:21.999Z,32.67
2022-09-07T08:57:57.270Z,32.39
2022-09-07T09:00:24.292Z,32.08
2022-09-07T09:06:05.241Z,31.26
2022-09-07T09:09:03.731Z,31.41
2022-09-07T09:11:49.649Z,31.47
2022-09-07T09:14:23.281Z,30.68
2022-09-07T09:16:57.221Z,30.70
2022-09-07T09:19:39.848Z,30.65
2022-09-07T09:22:13.759Z,29.80
2022-09-07T09:25:07.612Z,29.62
2022-09-07T09:27:34.602Z,29.24
2022-09-07T09:30:18.708Z,29.02
2022-09-07T09:32:48.543Z,29.05
2022-09-07T09:35:34.518Z,29.09
2022-09-07T09:38:04.113Z,29.08
2022-09-07T09:40:34.063Z,29.10
2022-09-07T09:43:03.795Z,29.01
2022-09-07T09:48:36.881Z,28.53
2022-09-07T09:54:07.938Z,28.56
2022-09-07T09:56:40.926Z,28.49
2022-09-07T10:05:29.534Z,28.12
2022-09-07T10:07:57.160Z,28.03
2022-09-07T10:10:26.510Z,27.59
2022-09-07T10:12:55.251Z,28.00
2022-09-07T10:15:41.722Z,27.41
2022-09-07T10:18:21.454Z,27.62
2022-09-07T10:20:49.009Z,27.53
2022-09-07T10:23:23.940Z,27.90
2022-09-07T10:25:53.697Z,28.01
2022-09-07T10:28:23.935Z,27.90
2022-09-07T10:31:14.726Z,27.71
2022-09-07T10:34:26.154Z,28.03
2022-09-07T10:37:03.031Z,27.73
2022-09-07T10:39:37.253Z,27.89
2022-09-07T10:42:29.367Z,27.99
2022-09-07T10:45:08.599Z,27.99
2022-09-07T10:47:53.241Z,27.78
2022-09-07T10:50:47.866Z,27.63
2022-09-07T10:53:42.299Z,27.80
2022-09-07T10:56:21.034Z,27.77
2022-09-07T10:59:06.454Z,27.69
2022-09-07T11:01:48.862Z,27.65
2022-09-07T11:04:18.734Z,27.67
2022-09-07T11:06:52.207Z,27.66
2022-09-07T11:09:50.970Z,27.63
2022-09-07T11:12:27.916Z,27.57
2022-09-07T11:15:15.107Z,27.41
2022-09-07T11:17:55.135Z,27.59
2022-09-07T11:20:27.043Z,27.56
2022-09-07T11:23:12.210Z,27.49
2022-09-07T11:25:54.165Z,27.46
2022-09-07T11:28:26.345Z,27.38
2022-09-07T11:31:00.558Z,27.48
2022-09-07T11:33:36.481Z,27.56
2022-09-07T11:36:13.205Z,27.59
2022-09-07T11:38:57.635Z,27.35
2022-09-07T11:41:29.549Z,27.57
2022-09-07T11:44:02.688Z,27.47
2022-09-07T11:46:38.267Z,27.54
2022-09-07T11:49:13.163Z,27.68
2022-09-07T11:51:46.534Z,27.65
2022-09-07T11:54:22.651Z,27.54
2022-09-07T11:57:08.407Z,27.49
2022-09-07T11:59:38.565Z,27.41
2022-09-07T12:02:18.657Z,27.50
2022-09-07T12:05:06.511Z,27.56
2022-09-07T12:07:36.372Z,27.64
2022-09-07T12:10:06.918Z,27.56
2022-09-07T12:12:43.855Z,27.55
2022-09-07T12:15:32.989Z,27.54
2022-09-07T12:18:24.513Z,27.54
2022-09-07T12:20:52.075Z,27.64
2022-09-07T12:23:25.508Z,27.59
2022-09-07T12:26:34.323Z,27.68
2022-09-07T12:29:01.766Z,27.71
2022-09-07T12:31:57.144Z,27.65
2022-09-07T12:34:31.402Z,27.56
2022-09-07T12:37:03.627Z,27.69
2022-09-07T12:39:35.139Z,27.25
2022-09-07T12:45:30.090Z,27.42
2022-09-07T12:47:59.866Z,27.40
2022-09-07T12:50:40.157Z,27.44
2022-09-07T12:53:13.823Z,27.50
2022-09-07T12:59:16.061Z,27.64
2022-09-07T13:02:07.728Z,27.73
2022-09-07T13:04:46.969Z,27.69
2022-09-07T13:07:19.387Z,27.71
2022-09-07T13:10:36.288Z,27.74
2022-09-07T13:13:14.883Z,27.67
2022-09-07T13:15:51.355Z,27.58
2022-09-07T13:18:30.366Z,27.58
2022-09-07T13:21:09.774Z,27.43
2022-09-07T13:23:38.133Z,27.49
2022-09-07T13:26:12.421Z,27.46
2022-09-07T13:28:56.424Z,27.49
2022-09-07T13:31:38.827Z,27.49
2022-09-07T13:34:33.833Z,27.43
2022-09-07T13:37:03.301Z,27.42
2022-09-07T13:39:45.641Z,27.40
2022-09-07T13:42:22.643Z,27.41
2022-09-07T13:44:55.719Z,27.45
2022-09-07T13:47:40.393Z,27.45
2022-09-07T13:50:22.264Z,27.40
2022-09-07T13:53:14.038Z,27.43
2022-09-07T13:55:51.667Z,27.32
2022-09-07T13:58:39.689Z,27.17
2022-09-07T14:01:13.054Z,26.96
2022-09-07T14:03:51.743Z,26.96
2022-09-07T14:06:21.733Z,26.96
2022-09-07T14:08:54.379Z,26.91
2022-09-07T14:11:29.386Z,26.94
2022-09-07T14:14:11.673Z,27.15
2022-09-07T14:16:39.325Z,27.29
2022-09-07T14:19:18.827Z,27.32
2022-09-07T14:21:56.887Z,27.48
2022-09-07T14:24:31.105Z,27.74
2022-09-07T14:26:58.713Z,27.78
2022-09-07T14:29:32.219Z,27.76
2022-09-07T14:32:02.059Z,27.67
2022-09-07T14:34:37.635Z,27.57
2022-09-07T14:37:12.469Z,27.47
2022-09-07T14:39:42.621Z,27.36
2022-09-07T14:42:15.228Z,27.29
2022-09-07T14:44:45.638Z,27.24
2022-09-07T14:47:29.188Z,27.21
2022-09-07T14:50:05.206Z,27.18
2022-09-07T14:52:43.093Z,27.19
2022-09-07T14:55:28.536Z,27.21
2022-09-07T14:58:25.513Z,27.28
2022-09-07T15:03:56.845Z,27.38
2022-09-07T15:09:39.751Z,27.39
2022-09-07T15:12:38.852Z,27.35
2022-09-07T15:15:27.375Z,27.39
2022-09-07T15:18:02.865Z,27.57
2022-09-07T15:20:44.409Z,27.54
2022-09-07T15:23:14.277Z,27.50
2022-09-07T15:25:49.825Z,27.45
2022-09-07T15:34:12.889Z,27.15
2022-09-07T15:36:42.796Z,27.05
2022-09-07T15:39:36.204Z,26.90
2022-09-07T15:44:54.837Z,26.59
2022-09-07T15:50:11.964Z,26.46
2022-09-07T15:52:41.720Z,26.43
2022-09-07T15:55:09.346Z,26.33
2022-09-07T15:58:02.270Z,26.30
2022-09-07T16:00:23.712Z,26.21
2022-09-07T16:03:08.166Z,26.13
2022-09-07T16:05:35.975Z,26.04
2022-09-07T16:10:54.067Z,25.82
2022-09-07T16:13:24.525Z,25.78
2022-09-07T16:15:52.314Z,25.72
2022-09-07T16:18:19.741Z,25.62
2022-09-07T16:20:47.520Z,25.51
2022-09-07T16:23:19.199Z,25.42
2022-09-07T16:25:57.966Z,25.43
2022-09-07T16:28:25.823Z,25.44
2022-09-07T16:30:52.891Z,25.43
2022-09-07T16:33:19.986Z,25.52
2022-09-07T16:35:59.602Z,25.53
2022-09-07T16:38:47.396Z,25.68
2022-09-07T16:41:23.310Z,25.77
2022-09-07T16:43:50.773Z,25.87
2022-09-07T16:46:20.960Z,25.87
2022-09-07T16:48:48.550Z,25.84
2022-09-07T16:51:22.790Z,25.83
2022-09-07T16:53:52.983Z,25.81
2022-09-07T16:56:24.513Z,25.75
2022-09-07T16:58:56.733Z,25.73
2022-09-07T17:01:29.454Z,25.65
2022-09-07T17:03:57.064Z,25.51
2022-09-07T17:06:26.876Z,25.40
2022-09-07T17:08:55.106Z,25.31
2022-09-07T17:11:29.508Z,25.30
2022-09-07T17:13:59.297Z,25.15
2022-09-07T17:16:30.229Z,25.08
2022-09-07T17:21:48.329Z,24.80
2022-09-07T17:24:19.780Z,24.64
2022-09-07T17:26:47.600Z,24.43
2022-09-07T17:29:14.700Z,24.44
2022-09-07T17:34:31.709Z,24.16
2022-09-07T17:37:01.731Z,23.99
2022-09-07T17:39:29.406Z,23.80
2022-09-07T17:41:56.877Z,23.64
2022-09-07T17:44:23.916Z,23.49
2022-09-07T17:46:51.803Z,23.38
2022-09-07T17:49:19.230Z,23.20
2022-09-07T17:51:46.793Z,23.17
2022-09-07T17:54:16.815Z,23.03
2022-09-07T17:56:45.135Z,22.94
2022-09-07T18:02:01.136Z,22.73
2022-09-07T18:04:29.171Z,22.64
2022-09-07T18:06:56.677Z,22.57
2022-09-07T18:09:24.734Z,22.47
2022-09-07T18:11:52.408Z,22.37
2022-09-07T18:14:20.261Z,22.28
2022-09-07T18:16:50.130Z,22.21
2022-09-07T18:19:18.636Z,22.12
2022-09-07T18:21:48.185Z,22.02
2022-09-07T18:24:22.574Z,21.93
2022-09-07T18:26:52.778Z,21.79
2022-09-07T18:29:33.699Z,21.69
2022-09-07T18:32:08.922Z,21.63
2022-09-07T18:34:40.557Z,21.61
2022-09-07T18:37:08.930Z,21.55
2022-09-07T18:39:37.023Z,21.46
2022-09-07T18:42:05.036Z,21.42
2022-09-07T18:47:28.406Z,21.18
2022-09-07T18:49:57.395Z,21.05
2022-09-07T18:55:14.137Z,20.95
2022-09-07T18:57:42.582Z,20.94
2022-09-07T19:00:12.876Z,20.87
2022-09-07T19:02:41.287Z,20.79
2022-09-07T19:08:00.000Z,20.63
2022-09-07T19:10:27.969Z,20.63
2022-09-07T19:12:56.376Z,20.56
2022-09-07T19:15:24.179Z,20.51
2022-09-07T19:17:51.983Z,20.45
2022-09-07T19:20:19.381Z,20.39
2022-09-07T19:22:46.844Z,20.36
2022-09-07T19:25:14.525Z,20.33
2022-09-07T19:27:42.172Z,20.31
2022-09-07T19:30:12.397Z,20.25
2022-09-07T19:32:40.831Z,20.19
2022-09-07T19:35:08.523Z,20.12
2022-09-07T19:37:40.959Z,20.06
2022-09-07T19:40:11.975Z,20.00
2022-09-07T19:42:41.098Z,19.95
2022-09-07T19:45:09.020Z,19.87
2022-09-07T19:47:39.136Z,19.80
2022-09-07T19:50:06.902Z,19.73
2022-09-07T19:52:36.695Z,19.69
2022-09-07T19:55:04.809Z,19.62
2022-09-07T19:57:32.773Z,19.53
2022-09-07T20:00:00.672Z,19.52
2022-09-07T20:02:28.325Z,19.55
2022-09-07T20:04:56.069Z,19.65
2022-09-07T20:07:23.855Z,19.71
2022-09-07T20:09:54.123Z,19.68
2022-09-07T20:12:23.695Z,19.59
2022-09-07T20:14:51.126Z,19.44
2022-09-07T20:17:18.756Z,19.38
2022-09-07T20:19:46.049Z,19.33
2022-09-07T20:22:13.395Z,19.30
2022-09-07T20:24:41.170Z,19.25
2022-09-07T20:27:08.739Z,19.27
2022-09-07T20:29:36.286Z,19.21
2022-09-07T20:32:06.189Z,19.18
2022-09-07T20:34:33.807Z,19.09
2022-09-07T20:37:01.735Z,19.03
2022-09-07T20:39:29.252Z,19.01
2022-09-07T20:41:56.321Z,18.98
2022-09-07T20:44:23.497Z,18.99
2022-09-07T20:46:53.735Z,18.93
2022-09-07T20:49:21.517Z,18.87
2022-09-07T20:51:48.525Z,18.81
2022-09-07T20:54:18.262Z,18.73
2022-09-07T20:56:45.327Z,18.75
2022-09-07T20:59:12.702Z,18.76
2022-09-07T21:01:40.413Z,18.75
2022-09-07T21:04:07.482Z,18.74
2022-09-07T21:06:34.984Z,18.74
2022-09-07T21:09:05.194Z,18.75
2022-09-07T21:11:34.502Z,18.72
2022-09-07T21:14:06.774Z,18.69
2022-09-07T21:16:35.262Z,18.65
2022-09-07T21:19:06.105Z,18.58
2022-09-07T21:21:42.227Z,18.55
2022-09-07T21:24:19.947Z,18.52
2022-09-07T21:26:48.412Z,18.46
2022-09-07T21:29:24.244Z,18.42
2022-09-07T21:31:55.059Z,18.37
2022-09-07T21:34:23.419Z,18.33
2022-09-07T21:36:51.309Z,18.32
2022-09-07T21:39:18.787Z,18.27
2022-09-07T21:41:46.287Z,18.22
2022-09-07T21:44:18.219Z,18.15
2022-09-07T21:46:45.372Z,18.09
2022-09-07T21:49:12.701Z,18.03
2022-09-07T21:51:42.201Z,18.00
2022-09-07T21:54:09.650Z,18.15
2022-09-07T21:56:36.903Z,18.07
2022-09-07T21:59:08.762Z,17.97
2022-09-07T22:01:35.710Z,17.91
2022-09-07T22:04:04.812Z,17.83
2022-09-07T22:06:35.201Z,17.84
2022-09-07T22:09:03.725Z,17.82
2022-09-07T22:11:31.533Z,17.84
2022-09-07T22:14:01.621Z,17.92
2022-09-07T22:16:29.313Z,17.94
2022-09-07T22:18:58.707Z,17.90
2022-09-07T22:21:28.018Z,17.88
2022-09-07T22:23:57.564Z,17.81
2022-09-07T22:26:27.464Z,17.78
2022-09-07T22:28:55.726Z,17.71
2022-09-07T22:31:28.807Z,17.71
2022-09-07T22:33:57.219Z,17.67
2022-09-07T22:36:27.220Z,17.74
2022-09-07T22:38:56.624Z,17.72
2022-09-07T22:41:27.164Z,17.63
2022-09-07T22:43:54.922Z,17.52
2022-09-07T22:46:23.464Z,17.51
2022-09-07T22:48:51.075Z,17.43
2022-09-07T22:51:17.962Z,17.37
2022-09-07T22:53:44.999Z,17.31
2022-09-07T22:56:22.181Z,17.29
2022-09-07T22:58:51.981Z,17.30
2022-09-07T23:01:19.641Z,17.28
2022-09-07T23:03:47.019Z,17.22
2022-09-07T23:06:23.005Z,17.21
2022-09-07T23:08:51.701Z,17.27
2022-09-07T23:11:22.938Z,17.37
2022-09-07T23:13:52.749Z,17.47
2022-09-07T23:16:21.047Z,17.36
2022-09-07T23:18:48.390Z,17.27
2022-09-07T23:24:46.983Z,17.14
2022-09-07T23:27:15.189Z,17.15
2022-09-07T23:29:45.053Z,17.25
2022-09-07T23:32:12.694Z,17.29
2022-09-07T23:34:41.030Z,17.42
2022-09-07T23:37:09.858Z,17.38
2022-09-07T23:39:37.832Z,17.43
2022-09-07T23:42:05.934Z,17.38
2022-09-07T23:44:33.242Z,17.42
2022-09-07T23:47:00.014Z,17.41
2022-09-07T23:49:27.691Z,17.36
2022-09-07T23:51:56.410Z,17.32
2022-09-07T23:54:24.824Z,17.31
2022-09-07T23:56:52.534Z,17.24
2022-09-07T23:59:20.215Z,17.19
